OAL463 EGLL-KJFK
Flight info
| Callsign | OAL463 |
|---|---|
| Flight time | N/A |
| Altitude | 30000 |
| Route | ULTIB T420 TNT UL28 PENIL M144 BAGSO DCT RINUS DCT MALOT/M084F300 NATE RIKAL/N0482F300 N572A TOPPS DCT ENE PARCH4 |
| Aircraft | B77L/H-SDE1E2E3FGHIJ2J3J4J5M1RWXY/LB1D1 |
Departure
| Time | N/A |
|---|---|
| Airport | London Heathrow Airport (EGLL) |
Arrival
| Time | 2026-05-05 20:30 |
|---|---|
| Airport | John F. Kennedy International Airport (KJFK) |
| Time | Latitude | Longitude | Altitude | Speed | Heading |
|---|---|---|---|---|---|
| 2026-05-05 14:14 | 53.62386 | -3.84573 | 30049 ft | 471 kts | 273° |
| 2026-05-05 14:14 | 53.62605 | -3.90009 | 30050 ft | 471 kts | 273° |
| 2026-05-05 14:14 | 53.63063 | -4.01021 | 30044 ft | 471 kts | 273° |
| 2026-05-05 14:15 | 53.63491 | -4.12040 | 30047 ft | 471 kts | 273° |
| 2026-05-05 14:15 | 53.63904 | -4.23049 | 30047 ft | 471 kts | 273° |
| 2026-05-05 14:16 | 53.64308 | -4.34076 | 30046 ft | 471 kts | 273° |
| 2026-05-05 14:16 | 53.64698 | -4.45094 | 30045 ft | 472 kts | 273° |
| 2026-05-05 14:17 | 53.65079 | -4.56139 | 30047 ft | 472 kts | 273° |
| 2026-05-05 14:17 | 53.65452 | -4.67208 | 30045 ft | 473 kts | 273° |
| 2026-05-05 14:18 | 53.65817 | -4.78266 | 30056 ft | 473 kts | 272° |
| 2026-05-05 14:18 | 53.66175 | -4.89351 | 30058 ft | 474 kts | 273° |
| 2026-05-05 14:19 | 53.66541 | -5.00384 | 30056 ft | 475 kts | 273° |
| 2026-05-05 14:19 | 53.66902 | -5.11519 | 30056 ft | 475 kts | 272° |
| 2026-05-05 14:20 | 53.67239 | -5.22650 | 30055 ft | 475 kts | 272° |
| 2026-05-05 14:20 | 53.67553 | -5.33784 | 30053 ft | 476 kts | 272° |
| 2026-05-05 14:21 | 53.67863 | -5.44933 | 30058 ft | 475 kts | 272° |
| 2026-05-05 14:21 | 53.68010 | -5.56065 | 30071 ft | 474 kts | 269° |
| 2026-05-05 14:22 | 53.67897 | -5.67195 | 30065 ft | 474 kts | 268° |
| 2026-05-05 14:22 | 53.67757 | -5.78304 | 30063 ft | 473 kts | 268° |
| 2026-05-05 14:23 | 53.67631 | -5.89338 | 30067 ft | 473 kts | 269° |
| 2026-05-05 14:23 | 53.67504 | -6.00502 | 30073 ft | 473 kts | 268° |
| 2026-05-05 14:24 | 53.67369 | -6.11509 | 30077 ft | 473 kts | 268° |
| 2026-05-05 14:24 | 53.67221 | -6.22664 | 30072 ft | 473 kts | 268° |
| 2026-05-05 14:25 | 53.67065 | -6.33757 | 30075 ft | 473 kts | 268° |
| 2026-05-05 14:25 | 53.66898 | -6.44851 | 30074 ft | 473 kts | 268° |
| 2026-05-05 14:26 | 53.66721 | -6.55875 | 30074 ft | 473 kts | 268° |
| 2026-05-05 14:26 | 53.66534 | -6.66982 | 30075 ft | 474 kts | 268° |
| 2026-05-05 14:27 | 53.66334 | -6.78085 | 30075 ft | 475 kts | 268° |
| 2026-05-05 14:27 | 53.66125 | -6.89233 | 30073 ft | 475 kts | 268° |
| 2026-05-05 14:28 | 53.65907 | -7.00355 | 30074 ft | 475 kts | 268° |
| 2026-05-05 14:28 | 53.65676 | -7.11498 | 30080 ft | 475 kts | 268° |
| 2026-05-05 14:29 | 53.65437 | -7.22633 | 30087 ft | 475 kts | 268° |
| 2026-05-05 14:29 | 53.65189 | -7.33698 | 30089 ft | 475 kts | 268° |
| 2026-05-05 14:30 | 53.64929 | -7.44813 | 30093 ft | 475 kts | 268° |
| 2026-05-05 14:30 | 53.64659 | -7.55932 | 30101 ft | 474 kts | 268° |
| 2026-05-05 14:31 | 53.64379 | -7.67032 | 30098 ft | 474 kts | 267° |
| 2026-05-05 14:31 | 53.63847 | -7.78128 | 30100 ft | 474 kts | 264° |
| 2026-05-05 14:32 | 53.63144 | -7.89185 | 30103 ft | 475 kts | 264° |
| 2026-05-05 14:32 | 53.62447 | -8.00250 | 30097 ft | 474 kts | 264° |
| 2026-05-05 14:33 | 53.61776 | -8.11307 | 30110 ft | 474 kts | 264° |
| 2026-05-05 14:33 | 53.61109 | -8.22365 | 30096 ft | 474 kts | 264° |
| 2026-05-05 14:34 | 53.60434 | -8.33418 | 30102 ft | 475 kts | 264° |
| 2026-05-05 14:34 | 53.59748 | -8.44463 | 30105 ft | 474 kts | 264° |
| 2026-05-05 14:35 | 53.59055 | -8.55442 | 30100 ft | 474 kts | 264° |
| 2026-05-05 14:35 | 53.58347 | -8.66472 | 30107 ft | 474 kts | 264° |
| 2026-05-05 14:36 | 53.57628 | -8.77503 | 30109 ft | 474 kts | 264° |
| 2026-05-05 14:36 | 53.56903 | -8.88554 | 30102 ft | 475 kts | 264° |
| 2026-05-05 14:37 | 53.56161 | -8.99580 | 30100 ft | 474 kts | 264° |
| 2026-05-05 14:37 | 53.55409 | -9.10593 | 30096 ft | 474 kts | 263° |
| 2026-05-05 14:38 | 53.54653 | -9.21611 | 30102 ft | 474 kts | 263° |
| 2026-05-05 14:38 | 53.53889 | -9.32611 | 30104 ft | 473 kts | 263° |
| 2026-05-05 14:39 | 53.53111 | -9.43600 | 30103 ft | 473 kts | 263° |
| 2026-05-05 14:39 | 53.52324 | -9.54572 | 30098 ft | 473 kts | 263° |
| 2026-05-05 14:40 | 53.51526 | -9.65541 | 30105 ft | 473 kts | 263° |
| 2026-05-05 14:40 | 53.50721 | -9.76499 | 30101 ft | 473 kts | 263° |
| 2026-05-05 14:41 | 53.49906 | -9.87457 | 30108 ft | 472 kts | 263° |
| 2026-05-05 14:41 | 53.49080 | -9.98402 | 30101 ft | 472 kts | 263° |
| 2026-05-05 14:42 | 53.48243 | -10.09339 | 30105 ft | 472 kts | 263° |
| 2026-05-05 14:42 | 53.47400 | -10.20233 | 30105 ft | 471 kts | 263° |
| 2026-05-05 14:43 | 53.46639 | -10.29950 | 30093 ft | 472 kts | 263° |
| 2026-05-05 14:43 | 53.45847 | -10.39972 | 30100 ft | 472 kts | 263° |
| 2026-05-05 14:44 | 53.44975 | -10.50885 | 30114 ft | 472 kts | 263° |
| 2026-05-05 14:44 | 53.44092 | -10.61808 | 30096 ft | 473 kts | 262° |
| 2026-05-05 14:45 | 53.43197 | -10.72743 | 30106 ft | 474 kts | 262° |
| 2026-05-05 14:45 | 53.42290 | -10.83695 | 30104 ft | 474 kts | 262° |
| 2026-05-05 14:46 | 53.41373 | -10.94643 | 30099 ft | 474 kts | 262° |
| 2026-05-05 14:46 | 53.40445 | -11.05596 | 30103 ft | 475 kts | 262° |
| 2026-05-05 14:47 | 53.39505 | -11.16548 | 30107 ft | 475 kts | 262° |
| 2026-05-05 14:47 | 53.38554 | -11.27514 | 30103 ft | 475 kts | 262° |
| 2026-05-05 14:48 | 53.37601 | -11.38452 | 30100 ft | 475 kts | 262° |
| 2026-05-05 14:48 | 53.36630 | -11.49382 | 30103 ft | 474 kts | 262° |
| 2026-05-05 14:49 | 53.35654 | -11.60297 | 30096 ft | 474 kts | 262° |
| 2026-05-05 14:49 | 53.34675 | -11.71124 | 30114 ft | 473 kts | 262° |
| 2026-05-05 14:50 | 53.33681 | -11.82007 | 30100 ft | 473 kts | 262° |
| 2026-05-05 14:50 | 53.32674 | -11.92906 | 30113 ft | 473 kts | 262° |
| 2026-05-05 14:51 | 53.31659 | -12.03784 | 30109 ft | 473 kts | 262° |
| 2026-05-05 14:51 | 53.30635 | -12.14656 | 30108 ft | 473 kts | 262° |
| 2026-05-05 14:52 | 53.29600 | -12.25527 | 30108 ft | 473 kts | 262° |
| 2026-05-05 14:52 | 53.28554 | -12.36398 | 30111 ft | 473 kts | 261° |
| 2026-05-05 14:53 | 53.27500 | -12.47251 | 30109 ft | 474 kts | 261° |
| 2026-05-05 14:53 | 53.26434 | -12.58114 | 30109 ft | 474 kts | 261° |
| 2026-05-05 14:54 | 53.25363 | -12.68947 | 30114 ft | 473 kts | 261° |
| 2026-05-05 14:54 | 53.24463 | -12.77957 | 30110 ft | 473 kts | 261° |
| 2026-05-05 14:55 | 53.23370 | -12.88796 | 30110 ft | 474 kts | 261° |
| 2026-05-05 14:55 | 53.22268 | -12.99635 | 30115 ft | 474 kts | 261° |
| 2026-05-05 14:56 | 53.21155 | -13.10468 | 30112 ft | 473 kts | 261° |
| 2026-05-05 14:56 | 53.20033 | -13.21292 | 30117 ft | 473 kts | 261° |
| 2026-05-05 14:57 | 53.18902 | -13.32092 | 30108 ft | 473 kts | 261° |
| 2026-05-05 14:57 | 53.17762 | -13.42897 | 30109 ft | 473 kts | 261° |
| 2026-05-05 14:58 | 53.16613 | -13.53687 | 30110 ft | 473 kts | 261° |
| 2026-05-05 14:58 | 53.15463 | -13.64388 | 30111 ft | 472 kts | 260° |
| 2026-05-05 14:59 | 53.14293 | -13.75153 | 30108 ft | 472 kts | 260° |
| 2026-05-05 14:59 | 53.13117 | -13.85912 | 30114 ft | 472 kts | 260° |
| 2026-05-05 15:00 | 53.12126 | -13.94905 | 30109 ft | 471 kts | 260° |
| 2026-05-05 15:00 | 53.10742 | -14.07366 | 30113 ft | 471 kts | 260° |
| 2026-05-05 15:01 | 53.09533 | -14.18105 | 30102 ft | 471 kts | 260° |
| 2026-05-05 15:01 | 53.08320 | -14.28808 | 30114 ft | 470 kts | 260° |
| 2026-05-05 15:02 | 53.07100 | -14.39501 | 30115 ft | 470 kts | 260° |
| 2026-05-05 15:02 | 53.05869 | -14.50190 | 30108 ft | 471 kts | 259° |
| 2026-05-05 15:03 | 53.04629 | -14.60872 | 30115 ft | 471 kts | 259° |
| 2026-05-05 15:03 | 53.03378 | -14.71559 | 30102 ft | 471 kts | 259° |
| 2026-05-05 15:04 | 53.02117 | -14.82259 | 30107 ft | 472 kts | 259° |
| 2026-05-05 15:04 | 53.00879 | -14.92943 | 30101 ft | 470 kts | 263° |
| 2026-05-05 15:05 | 53.01071 | -15.03727 | 30121 ft | 472 kts | 280° |
| 2026-05-05 15:05 | 53.01877 | -15.09027 | 30112 ft | 477 kts | 289° |
| 2026-05-05 15:06 | 53.04242 | -15.19395 | 30115 ft | 480 kts | 291° |
| 2026-05-05 15:06 | 53.06629 | -15.29749 | 30116 ft | 479 kts | 290° |
| 2026-05-05 15:07 | 53.08966 | -15.40114 | 30123 ft | 478 kts | 290° |
| 2026-05-05 15:07 | 53.11269 | -15.50498 | 30122 ft | 478 kts | 290° |
| 2026-05-05 15:08 | 53.13550 | -15.60872 | 30116 ft | 478 kts | 290° |
| 2026-05-05 15:08 | 53.15821 | -15.71265 | 30120 ft | 477 kts | 289° |
| 2026-05-05 15:09 | 53.18084 | -15.81637 | 30121 ft | 476 kts | 289° |
| 2026-05-05 15:09 | 53.20337 | -15.92020 | 30123 ft | 476 kts | 289° |
| 2026-05-05 15:10 | 53.22574 | -16.02403 | 30121 ft | 475 kts | 289° |
| 2026-05-05 15:10 | 53.24785 | -16.12711 | 30120 ft | 475 kts | 289° |
| 2026-05-05 15:11 | 53.27004 | -16.23107 | 30122 ft | 475 kts | 289° |
| 2026-05-05 15:11 | 53.29213 | -16.33508 | 30115 ft | 475 kts | 289° |
| 2026-05-05 15:12 | 53.31417 | -16.43917 | 30119 ft | 475 kts | 289° |
| 2026-05-05 15:12 | 53.33611 | -16.54357 | 30124 ft | 476 kts | 289° |
| 2026-05-05 15:13 | 53.35799 | -16.64823 | 30118 ft | 476 kts | 289° |
| 2026-05-05 15:13 | 53.37976 | -16.75285 | 30119 ft | 477 kts | 288° |
| 2026-05-05 15:14 | 53.40151 | -16.85781 | 30125 ft | 478 kts | 288° |
| 2026-05-05 15:14 | 53.42319 | -16.96331 | 30121 ft | 478 kts | 288° |
| 2026-05-05 15:15 | 53.44480 | -17.06879 | 30115 ft | 479 kts | 288° |
| 2026-05-05 15:15 | 53.46632 | -17.17441 | 30118 ft | 479 kts | 288° |
| 2026-05-05 15:16 | 53.48779 | -17.28040 | 30122 ft | 479 kts | 288° |
| 2026-05-05 15:16 | 53.50904 | -17.38586 | 30124 ft | 480 kts | 288° |
| 2026-05-05 15:17 | 53.53037 | -17.49219 | 30125 ft | 480 kts | 288° |
| 2026-05-05 15:17 | 53.54102 | -17.54557 | 30232 ft | 483 kts | 288° |
| 2026-05-05 15:17 | 53.55167 | -17.59907 | 30578 ft | 482 kts | 288° |
| 2026-05-05 15:17 | 53.56226 | -17.65234 | 30970 ft | 480 kts | 288° |
| 2026-05-05 15:18 | 53.57279 | -17.70552 | 31358 ft | 478 kts | 287° |
| 2026-05-05 15:18 | 53.58327 | -17.75862 | 31691 ft | 477 kts | 288° |
| 2026-05-05 15:18 | 53.59371 | -17.81162 | 31966 ft | 476 kts | 287° |
| 2026-05-05 15:19 | 53.61451 | -17.91784 | 32126 ft | 478 kts | 287° |
| 2026-05-05 15:19 | 53.63526 | -18.02419 | 32122 ft | 477 kts | 287° |
| 2026-05-05 15:20 | 53.65583 | -18.13023 | 32129 ft | 475 kts | 287° |
| 2026-05-05 15:20 | 53.67624 | -18.23604 | 32131 ft | 474 kts | 287° |
| 2026-05-05 15:21 | 53.69654 | -18.34194 | 32134 ft | 475 kts | 287° |
| 2026-05-05 15:21 | 53.71680 | -18.44804 | 32133 ft | 475 kts | 287° |
| 2026-05-05 15:22 | 53.73694 | -18.55427 | 32131 ft | 475 kts | 287° |
| 2026-05-05 15:22 | 53.75702 | -18.66088 | 32131 ft | 477 kts | 287° |
| 2026-05-05 15:23 | 53.77707 | -18.76768 | 32127 ft | 477 kts | 287° |
| 2026-05-05 15:23 | 53.79708 | -18.87484 | 32135 ft | 478 kts | 287° |
| 2026-05-05 15:24 | 53.81694 | -18.98205 | 32128 ft | 479 kts | 287° |
| 2026-05-05 15:24 | 53.83682 | -19.08986 | 32135 ft | 479 kts | 287° |
| 2026-05-05 15:25 | 53.85659 | -19.19781 | 32130 ft | 480 kts | 287° |
| 2026-05-05 15:25 | 53.87627 | -19.30585 | 32135 ft | 480 kts | 287° |
| 2026-05-05 15:26 | 53.89587 | -19.41398 | 32128 ft | 480 kts | 287° |
| 2026-05-05 15:26 | 53.91538 | -19.52238 | 32137 ft | 481 kts | 287° |
| 2026-05-05 15:27 | 53.93483 | -19.63118 | 32142 ft | 482 kts | 287° |
| 2026-05-05 15:27 | 53.95426 | -19.74014 | 32144 ft | 483 kts | 287° |
| 2026-05-05 15:28 | 53.97361 | -19.84960 | 32135 ft | 484 kts | 287° |
| 2026-05-05 15:28 | 53.99262 | -19.95833 | 32141 ft | 484 kts | 285° |
| 2026-05-05 15:29 | 54.00398 | -20.07121 | 32138 ft | 485 kts | 274° |
| 2026-05-05 15:29 | 54.00801 | -20.18555 | 32138 ft | 485 kts | 274° |
| 2026-05-05 15:30 | 54.01210 | -20.29998 | 32137 ft | 484 kts | 274° |
| 2026-05-05 15:30 | 54.01639 | -20.41413 | 32178 ft | 483 kts | 274° |
| 2026-05-05 15:31 | 54.02072 | -20.52817 | 32184 ft | 483 kts | 274° |
| 2026-05-05 15:31 | 54.02491 | -20.64214 | 32191 ft | 483 kts | 274° |
| 2026-05-05 15:32 | 54.02898 | -20.75629 | 32194 ft | 483 kts | 274° |
| 2026-05-05 15:32 | 54.03295 | -20.87036 | 32191 ft | 483 kts | 274° |
| 2026-05-05 15:33 | 54.03684 | -20.98452 | 32192 ft | 483 kts | 274° |
| 2026-05-05 15:33 | 54.04059 | -21.09860 | 32189 ft | 483 kts | 274° |
| 2026-05-05 15:34 | 54.04422 | -21.21263 | 32195 ft | 483 kts | 274° |
| 2026-05-05 15:34 | 54.04777 | -21.32676 | 32195 ft | 483 kts | 274° |
| 2026-05-05 15:35 | 54.05119 | -21.44084 | 32192 ft | 483 kts | 274° |
| 2026-05-05 15:35 | 54.05451 | -21.55494 | 32192 ft | 482 kts | 274° |
| 2026-05-05 15:36 | 54.05772 | -21.66890 | 32190 ft | 482 kts | 274° |
| 2026-05-05 15:36 | 54.06081 | -21.78227 | 32193 ft | 482 kts | 274° |
| 2026-05-05 15:37 | 54.06379 | -21.89628 | 32196 ft | 482 kts | 274° |
| 2026-05-05 15:37 | 54.06667 | -22.01044 | 32199 ft | 483 kts | 274° |
| 2026-05-05 15:38 | 54.06945 | -22.12461 | 32201 ft | 483 kts | 274° |
| 2026-05-05 15:38 | 54.07214 | -22.23881 | 32212 ft | 483 kts | 274° |
| 2026-05-05 15:39 | 54.07470 | -22.35317 | 32200 ft | 483 kts | 273° |
| 2026-05-05 15:39 | 54.07671 | -22.44819 | 32200 ft | 483 kts | 273° |
| 2026-05-05 15:40 | 54.07951 | -22.58179 | 32206 ft | 483 kts | 273° |
| 2026-05-05 15:40 | 54.08174 | -22.69608 | 32213 ft | 483 kts | 273° |
| 2026-05-05 15:41 | 54.08387 | -22.81035 | 32224 ft | 483 kts | 273° |
| 2026-05-05 15:41 | 54.08556 | -22.90557 | 32219 ft | 483 kts | 273° |
| 2026-05-05 15:42 | 54.08751 | -23.02064 | 32222 ft | 483 kts | 273° |
| 2026-05-05 15:42 | 54.08934 | -23.13513 | 32224 ft | 484 kts | 273° |
| 2026-05-05 15:43 | 54.09103 | -23.24913 | 32219 ft | 484 kts | 273° |
| 2026-05-05 15:43 | 54.09266 | -23.36453 | 32222 ft | 485 kts | 273° |
| 2026-05-05 15:44 | 54.09417 | -23.47865 | 32219 ft | 485 kts | 273° |
| 2026-05-05 15:44 | 54.09557 | -23.59351 | 32225 ft | 485 kts | 273° |
| 2026-05-05 15:45 | 54.09684 | -23.70837 | 32242 ft | 485 kts | 273° |
| 2026-05-05 15:45 | 54.09801 | -23.82322 | 32250 ft | 485 kts | 272° |
| 2026-05-05 15:46 | 54.09907 | -23.93815 | 32278 ft | 485 kts | 272° |
| 2026-05-05 15:46 | 54.10003 | -24.05319 | 32285 ft | 485 kts | 272° |
| 2026-05-05 15:47 | 54.10089 | -24.16802 | 32287 ft | 485 kts | 272° |
| 2026-05-05 15:47 | 54.10164 | -24.28307 | 32287 ft | 485 kts | 272° |
| 2026-05-05 15:48 | 54.10225 | -24.39797 | 32287 ft | 485 kts | 272° |
| 2026-05-05 15:48 | 54.10276 | -24.51302 | 32296 ft | 486 kts | 272° |
| 2026-05-05 15:49 | 54.10319 | -24.62808 | 32294 ft | 486 kts | 272° |
| 2026-05-05 15:49 | 54.10348 | -24.74320 | 32294 ft | 486 kts | 272° |
| 2026-05-05 15:50 | 54.10367 | -24.85823 | 32294 ft | 486 kts | 272° |
| 2026-05-05 15:50 | 54.10376 | -24.97254 | 32293 ft | 485 kts | 272° |
| 2026-05-05 15:51 | 54.10374 | -25.08831 | 32296 ft | 486 kts | 272° |
| 2026-05-05 15:51 | 54.10360 | -25.20274 | 32295 ft | 487 kts | 272° |
| 2026-05-05 15:52 | 54.10334 | -25.31811 | 32304 ft | 487 kts | 272° |
| 2026-05-05 15:52 | 54.10297 | -25.43367 | 32302 ft | 488 kts | 272° |
| 2026-05-05 15:53 | 54.10249 | -25.54942 | 32305 ft | 488 kts | 272° |
| 2026-05-05 15:53 | 54.10192 | -25.66513 | 32303 ft | 488 kts | 272° |
| 2026-05-05 15:54 | 54.10122 | -25.78077 | 32304 ft | 488 kts | 272° |
| 2026-05-05 15:54 | 54.10042 | -25.89652 | 32327 ft | 488 kts | 272° |
| 2026-05-05 15:55 | 54.09952 | -26.01205 | 32401 ft | 487 kts | 272° |
| 2026-05-05 15:55 | 54.09849 | -26.12764 | 32397 ft | 488 kts | 272° |
| 2026-05-05 15:56 | 54.09737 | -26.24327 | 32397 ft | 489 kts | 272° |
| 2026-05-05 15:56 | 54.09612 | -26.35918 | 32397 ft | 489 kts | 271° |
| 2026-05-05 15:57 | 54.09475 | -26.47498 | 32396 ft | 489 kts | 271° |
| 2026-05-05 15:57 | 54.09327 | -26.59082 | 32395 ft | 489 kts | 271° |
| 2026-05-05 15:58 | 54.09170 | -26.70586 | 32399 ft | 489 kts | 271° |
| 2026-05-05 15:58 | 54.09003 | -26.82154 | 32405 ft | 488 kts | 271° |
| 2026-05-05 15:59 | 54.08820 | -26.93704 | 32411 ft | 487 kts | 271° |
| 2026-05-05 15:59 | 54.08629 | -27.05214 | 32413 ft | 486 kts | 271° |
| 2026-05-05 16:00 | 54.08428 | -27.16711 | 32414 ft | 485 kts | 271° |
| 2026-05-05 16:00 | 54.08215 | -27.28198 | 32413 ft | 485 kts | 271° |
| 2026-05-05 16:01 | 54.07996 | -27.39657 | 32419 ft | 484 kts | 270° |
| 2026-05-05 16:01 | 54.07762 | -27.51109 | 32423 ft | 484 kts | 270° |
| 2026-05-05 16:02 | 54.07515 | -27.62548 | 32425 ft | 484 kts | 270° |
| 2026-05-05 16:02 | 54.07261 | -27.74015 | 32422 ft | 484 kts | 270° |
| 2026-05-05 16:03 | 54.06998 | -27.85472 | 32425 ft | 485 kts | 270° |
| 2026-05-05 16:03 | 54.06722 | -27.96958 | 32423 ft | 485 kts | 270° |
| 2026-05-05 16:04 | 54.06430 | -28.08438 | 32424 ft | 485 kts | 270° |
| 2026-05-05 16:04 | 54.06131 | -28.19917 | 32423 ft | 486 kts | 270° |
| 2026-05-05 16:05 | 54.05821 | -28.31396 | 32423 ft | 486 kts | 270° |
| 2026-05-05 16:05 | 54.05501 | -28.42871 | 32422 ft | 486 kts | 270° |
| 2026-05-05 16:06 | 54.05168 | -28.54349 | 32425 ft | 485 kts | 269° |
| 2026-05-05 16:06 | 54.04827 | -28.65755 | 32423 ft | 485 kts | 269° |
| 2026-05-05 16:07 | 54.04475 | -28.77202 | 32424 ft | 485 kts | 269° |
| 2026-05-05 16:07 | 54.04112 | -28.88665 | 32420 ft | 484 kts | 269° |
| 2026-05-05 16:08 | 54.03735 | -29.00103 | 32424 ft | 484 kts | 269° |
| 2026-05-05 16:08 | 54.03348 | -29.11544 | 32424 ft | 484 kts | 269° |
| 2026-05-05 16:09 | 54.02953 | -29.22959 | 32422 ft | 483 kts | 268° |
| 2026-05-05 16:09 | 54.02546 | -29.34375 | 32424 ft | 483 kts | 268° |
| 2026-05-05 16:10 | 54.02129 | -29.45766 | 32422 ft | 483 kts | 268° |
| 2026-05-05 16:10 | 54.01703 | -29.57163 | 32424 ft | 483 kts | 268° |
| 2026-05-05 16:11 | 54.01265 | -29.68546 | 32423 ft | 483 kts | 268° |
| 2026-05-05 16:12 | 54.00360 | -29.91322 | 32422 ft | 483 kts | 268° |
| 2026-05-05 16:13 | 54.00752 | -30.19721 | 32422 ft | 481 kts | 276° |
| 2026-05-05 16:13 | 54.01236 | -30.31001 | 32415 ft | 482 kts | 275° |
| 2026-05-05 16:14 | 54.02113 | -30.53724 | 32413 ft | 482 kts | 275° |
| 2026-05-05 16:15 | 54.02933 | -30.76483 | 32414 ft | 482 kts | 274° |
| 2026-05-05 16:16 | 54.03714 | -30.99254 | 32423 ft | 483 kts | 274° |
| 2026-05-05 16:17 | 54.04271 | -31.16384 | 32423 ft | 483 kts | 274° |
| 2026-05-05 16:18 | 54.04808 | -31.33546 | 32341 ft | 485 kts | 273° |
| 2026-05-05 16:19 | 54.05317 | -31.50733 | 32343 ft | 485 kts | 273° |
| 2026-05-05 16:19 | 54.05804 | -31.67935 | 32342 ft | 485 kts | 273° |
| 2026-05-05 16:20 | 54.06412 | -31.90829 | 32345 ft | 484 kts | 272° |
| 2026-05-05 16:22 | 54.07112 | -32.19408 | 32336 ft | 484 kts | 272° |
| 2026-05-05 16:23 | 54.07623 | -32.42348 | 32333 ft | 485 kts | 272° |
| 2026-05-05 16:23 | 54.07980 | -32.59567 | 32334 ft | 485 kts | 272° |
| 2026-05-05 16:24 | 54.08169 | -32.69188 | 32334 ft | 485 kts | 272° |
| 2026-05-05 16:25 | 54.08487 | -32.86383 | 32333 ft | 486 kts | 271° |
| 2026-05-05 16:25 | 54.08779 | -33.03666 | 32330 ft | 487 kts | 271° |
| 2026-05-05 16:26 | 54.09134 | -33.26781 | 32335 ft | 489 kts | 271° |
| 2026-05-05 16:27 | 54.09292 | -33.38363 | 32334 ft | 489 kts | 270° |
| 2026-05-05 16:27 | 54.09443 | -33.49961 | 32330 ft | 490 kts | 270° |
| 2026-05-05 16:28 | 54.09583 | -33.61521 | 32335 ft | 491 kts | 270° |
| 2026-05-05 16:28 | 54.09711 | -33.73148 | 32335 ft | 491 kts | 270° |
| 2026-05-05 16:29 | 54.09826 | -33.84787 | 32329 ft | 492 kts | 270° |
| 2026-05-05 16:29 | 54.09929 | -33.96436 | 32335 ft | 492 kts | 270° |
| 2026-05-05 16:30 | 54.10026 | -34.08068 | 32335 ft | 492 kts | 269° |
| 2026-05-05 16:30 | 54.10112 | -34.19727 | 32333 ft | 492 kts | 269° |
| 2026-05-05 16:31 | 54.10183 | -34.31380 | 32334 ft | 492 kts | 269° |
| 2026-05-05 16:31 | 54.10243 | -34.43035 | 32327 ft | 492 kts | 269° |
| 2026-05-05 16:32 | 54.10293 | -34.54699 | 32319 ft | 492 kts | 269° |
| 2026-05-05 16:32 | 54.10331 | -34.66364 | 32323 ft | 492 kts | 269° |
| 2026-05-05 16:33 | 54.10359 | -34.78037 | 32323 ft | 493 kts | 269° |
| 2026-05-05 16:33 | 54.10373 | -34.89722 | 32323 ft | 493 kts | 269° |
| 2026-05-05 16:34 | 54.10378 | -35.01418 | 32322 ft | 494 kts | 268° |
| 2026-05-05 16:34 | 54.10372 | -35.13134 | 32323 ft | 495 kts | 268° |
| 2026-05-05 16:35 | 54.10352 | -35.24799 | 32323 ft | 496 kts | 268° |
| 2026-05-05 16:35 | 54.10324 | -35.36565 | 32322 ft | 497 kts | 268° |
| 2026-05-05 16:36 | 54.10280 | -35.48362 | 32323 ft | 498 kts | 268° |
| 2026-05-05 16:36 | 54.10226 | -35.60191 | 32323 ft | 500 kts | 267° |
| 2026-05-05 16:37 | 54.10174 | -35.69897 | 32323 ft | 501 kts | 267° |
| 2026-05-05 16:37 | 54.10100 | -35.81772 | 32321 ft | 501 kts | 267° |
| 2026-05-05 16:38 | 54.10013 | -35.93663 | 32312 ft | 502 kts | 267° |
| 2026-05-05 16:38 | 54.09915 | -36.05567 | 32315 ft | 502 kts | 267° |
| 2026-05-05 16:39 | 54.09805 | -36.17473 | 32311 ft | 502 kts | 267° |
| 2026-05-05 16:39 | 54.09684 | -36.29371 | 32314 ft | 502 kts | 266° |
| 2026-05-05 16:40 | 54.09551 | -36.41258 | 32312 ft | 501 kts | 266° |
| 2026-05-05 16:40 | 54.09405 | -36.53154 | 32229 ft | 503 kts | 266° |
| 2026-05-05 16:41 | 54.09248 | -36.65074 | 32142 ft | 503 kts | 266° |
| 2026-05-05 16:41 | 54.09079 | -36.76976 | 32135 ft | 502 kts | 266° |
| 2026-05-05 16:42 | 54.08900 | -36.88847 | 32136 ft | 501 kts | 266° |
| 2026-05-05 16:42 | 54.08709 | -37.00613 | 32136 ft | 500 kts | 266° |
| 2026-05-05 16:43 | 54.08506 | -37.12454 | 32144 ft | 500 kts | 266° |
| 2026-05-05 16:43 | 54.08292 | -37.24301 | 32172 ft | 500 kts | 265° |
| 2026-05-05 16:44 | 54.08066 | -37.36161 | 32212 ft | 501 kts | 265° |
| 2026-05-05 16:44 | 54.07827 | -37.48035 | 32220 ft | 503 kts | 265° |
| 2026-05-05 16:45 | 54.07573 | -37.59968 | 32216 ft | 505 kts | 265° |
| 2026-05-05 16:45 | 54.07310 | -37.71951 | 32199 ft | 507 kts | 265° |
| 2026-05-05 16:46 | 54.07035 | -37.83951 | 32212 ft | 508 kts | 265° |
| 2026-05-05 16:46 | 54.06745 | -37.95967 | 32201 ft | 508 kts | 264° |
| 2026-05-05 16:47 | 54.06448 | -38.07888 | 32214 ft | 508 kts | 264° |
| 2026-05-05 16:47 | 54.06135 | -38.19910 | 32199 ft | 507 kts | 264° |
| 2026-05-05 16:48 | 54.05809 | -38.31900 | 32211 ft | 507 kts | 264° |
| 2026-05-05 16:48 | 54.05472 | -38.43874 | 32196 ft | 506 kts | 264° |
| 2026-05-05 16:49 | 54.05125 | -38.55828 | 32213 ft | 505 kts | 264° |
| 2026-05-05 16:49 | 54.04769 | -38.67705 | 32194 ft | 505 kts | 264° |
| 2026-05-05 16:50 | 54.04397 | -38.79693 | 32197 ft | 504 kts | 264° |
| 2026-05-05 16:50 | 54.04017 | -38.91596 | 32192 ft | 504 kts | 264° |
| 2026-05-05 16:51 | 54.03626 | -39.03409 | 32193 ft | 504 kts | 264° |
| 2026-05-05 16:51 | 54.03217 | -39.15394 | 32193 ft | 504 kts | 264° |
| 2026-05-05 16:52 | 54.02800 | -39.27287 | 32196 ft | 503 kts | 264° |
| 2026-05-05 16:52 | 54.02375 | -39.39089 | 32195 ft | 504 kts | 264° |
| 2026-05-05 16:53 | 54.01936 | -39.50983 | 32198 ft | 504 kts | 264° |
| 2026-05-05 16:53 | 54.01486 | -39.62853 | 32189 ft | 504 kts | 263° |
| 2026-05-05 16:54 | 54.01022 | -39.74742 | 32180 ft | 503 kts | 263° |
| 2026-05-05 16:54 | 54.00548 | -39.86601 | 32186 ft | 502 kts | 263° |
| 2026-05-05 16:55 | 54.00064 | -39.98456 | 32185 ft | 502 kts | 263° |
| 2026-05-05 16:55 | 53.99477 | -40.10277 | 32183 ft | 502 kts | 262° |
| 2026-05-05 16:56 | 53.98765 | -40.22060 | 32187 ft | 501 kts | 261° |
| 2026-05-05 16:56 | 53.98041 | -40.33848 | 32186 ft | 501 kts | 261° |
| 2026-05-05 16:57 | 53.97325 | -40.45620 | 32186 ft | 501 kts | 261° |
| 2026-05-05 16:57 | 53.96610 | -40.57384 | 32179 ft | 501 kts | 261° |
| 2026-05-05 16:58 | 53.95885 | -40.69131 | 32174 ft | 500 kts | 261° |
| 2026-05-05 16:58 | 53.95150 | -40.80779 | 32175 ft | 498 kts | 261° |
| 2026-05-05 16:59 | 53.94403 | -40.92457 | 32176 ft | 497 kts | 261° |
| 2026-05-05 16:59 | 53.93649 | -41.04097 | 32174 ft | 495 kts | 261° |
| 2026-05-05 17:00 | 53.92886 | -41.15704 | 32174 ft | 494 kts | 261° |
| 2026-05-05 17:00 | 53.92112 | -41.27287 | 32175 ft | 494 kts | 261° |
| 2026-05-05 17:01 | 53.91325 | -41.38867 | 32177 ft | 494 kts | 261° |
| 2026-05-05 17:01 | 53.90527 | -41.50442 | 32164 ft | 495 kts | 261° |
| 2026-05-05 17:02 | 53.89719 | -41.62030 | 32159 ft | 495 kts | 261° |
| 2026-05-05 17:02 | 53.88899 | -41.73629 | 32148 ft | 496 kts | 261° |
| 2026-05-05 17:03 | 53.88062 | -41.85236 | 32150 ft | 496 kts | 261° |
| 2026-05-05 17:03 | 53.87215 | -41.96863 | 32153 ft | 497 kts | 261° |
| 2026-05-05 17:04 | 53.86358 | -42.08484 | 32151 ft | 498 kts | 261° |
| 2026-05-05 17:04 | 53.85487 | -42.20133 | 32145 ft | 498 kts | 260° |
| 2026-05-05 17:05 | 53.84606 | -42.31772 | 32150 ft | 498 kts | 260° |
| 2026-05-05 17:05 | 53.83713 | -42.43394 | 32150 ft | 498 kts | 260° |
| 2026-05-05 17:06 | 53.82811 | -42.55003 | 32154 ft | 497 kts | 260° |
| 2026-05-05 17:06 | 53.81897 | -42.66585 | 32138 ft | 496 kts | 260° |
| 2026-05-05 17:07 | 53.80978 | -42.78145 | 32144 ft | 495 kts | 260° |
| 2026-05-05 17:07 | 53.80049 | -42.89601 | 32136 ft | 494 kts | 260° |
| 2026-05-05 17:08 | 53.79107 | -43.01117 | 32134 ft | 494 kts | 260° |
| 2026-05-05 17:08 | 53.78156 | -43.12621 | 32143 ft | 494 kts | 259° |
| 2026-05-05 17:09 | 53.77193 | -43.24113 | 32142 ft | 493 kts | 259° |
| 2026-05-05 17:09 | 53.76382 | -43.33669 | 32138 ft | 494 kts | 259° |
| 2026-05-05 17:10 | 53.75398 | -43.45158 | 32139 ft | 494 kts | 259° |
| 2026-05-05 17:10 | 53.74402 | -43.56661 | 32129 ft | 495 kts | 259° |
| 2026-05-05 17:11 | 53.73393 | -43.68185 | 32136 ft | 496 kts | 259° |
| 2026-05-05 17:11 | 53.72373 | -43.79705 | 32120 ft | 496 kts | 259° |
| 2026-05-05 17:12 | 53.71343 | -43.91219 | 32130 ft | 496 kts | 259° |
| 2026-05-05 17:12 | 53.70298 | -44.02751 | 32128 ft | 497 kts | 259° |
| 2026-05-05 17:13 | 53.69239 | -44.14294 | 32131 ft | 498 kts | 259° |
| 2026-05-05 17:13 | 53.68171 | -44.25833 | 32132 ft | 498 kts | 259° |
| 2026-05-05 17:14 | 53.67089 | -44.37369 | 32122 ft | 498 kts | 258° |
| 2026-05-05 17:14 | 53.66004 | -44.48821 | 32135 ft | 497 kts | 258° |
| 2026-05-05 17:15 | 53.64907 | -44.60330 | 32125 ft | 497 kts | 258° |
| 2026-05-05 17:15 | 53.63798 | -44.71812 | 32130 ft | 496 kts | 258° |
| 2026-05-05 17:16 | 53.62678 | -44.83277 | 32127 ft | 495 kts | 258° |
| 2026-05-05 17:16 | 53.61550 | -44.94706 | 32109 ft | 494 kts | 258° |
| 2026-05-05 17:17 | 53.60411 | -45.06115 | 32121 ft | 494 kts | 258° |
| 2026-05-05 17:17 | 53.59263 | -45.17516 | 32116 ft | 494 kts | 258° |
| 2026-05-05 17:18 | 53.58105 | -45.28908 | 32121 ft | 494 kts | 258° |
| 2026-05-05 17:18 | 53.56937 | -45.40293 | 32126 ft | 494 kts | 258° |
| 2026-05-05 17:19 | 53.55759 | -45.51671 | 32092 ft | 495 kts | 258° |
| 2026-05-05 17:19 | 53.54563 | -45.63078 | 32062 ft | 495 kts | 258° |
| 2026-05-05 17:20 | 53.53358 | -45.74487 | 32055 ft | 496 kts | 257° |
| 2026-05-05 17:20 | 53.52143 | -45.85875 | 32057 ft | 496 kts | 257° |
| 2026-05-05 17:21 | 53.50911 | -45.97295 | 32056 ft | 497 kts | 257° |
| 2026-05-05 17:22 | 53.49042 | -46.14467 | 32558 ft | 498 kts | 257° |
| 2026-05-05 17:22 | 53.48412 | -46.20189 | 32939 ft | 496 kts | 257° |
| 2026-05-05 17:22 | 53.47785 | -46.25861 | 33292 ft | 494 kts | 257° |
| 2026-05-05 17:22 | 53.47157 | -46.31527 | 33607 ft | 493 kts | 257° |
| 2026-05-05 17:23 | 53.46525 | -46.37185 | 33753 ft | 494 kts | 257° |
| 2026-05-05 17:23 | 53.45247 | -46.48553 | 33835 ft | 495 kts | 257° |
| 2026-05-05 17:24 | 53.43963 | -46.59883 | 33836 ft | 493 kts | 257° |
| 2026-05-05 17:24 | 53.42686 | -46.71071 | 33823 ft | 491 kts | 257° |
| 2026-05-05 17:25 | 53.41389 | -46.82309 | 33825 ft | 490 kts | 257° |
| 2026-05-05 17:25 | 53.40086 | -46.93499 | 33822 ft | 489 kts | 257° |
| 2026-05-05 17:26 | 53.38774 | -47.04680 | 33827 ft | 490 kts | 257° |
| 2026-05-05 17:26 | 53.37449 | -47.15885 | 33815 ft | 491 kts | 257° |
| 2026-05-05 17:27 | 53.36109 | -47.27115 | 33816 ft | 492 kts | 257° |
| 2026-05-05 17:27 | 53.34756 | -47.38342 | 33815 ft | 493 kts | 257° |
| 2026-05-05 17:28 | 53.33388 | -47.49599 | 33812 ft | 494 kts | 256° |
| 2026-05-05 17:28 | 53.32010 | -47.60868 | 33804 ft | 495 kts | 256° |
| 2026-05-05 17:29 | 53.30618 | -47.72152 | 33805 ft | 495 kts | 256° |
| 2026-05-05 17:29 | 53.29216 | -47.83424 | 33804 ft | 495 kts | 256° |
| 2026-05-05 17:30 | 53.27804 | -47.94677 | 33796 ft | 495 kts | 256° |
| 2026-05-05 17:30 | 53.26380 | -48.05933 | 33801 ft | 495 kts | 256° |
| 2026-05-05 17:31 | 53.24946 | -48.17169 | 33794 ft | 495 kts | 256° |
| 2026-05-05 17:31 | 53.23510 | -48.28328 | 33788 ft | 494 kts | 256° |
| 2026-05-05 17:32 | 53.22051 | -48.39604 | 33784 ft | 493 kts | 256° |
| 2026-05-05 17:32 | 53.20589 | -48.50782 | 33788 ft | 493 kts | 256° |
| 2026-05-05 17:33 | 53.19129 | -48.61881 | 33774 ft | 492 kts | 256° |
| 2026-05-05 17:33 | 53.17644 | -48.73080 | 33784 ft | 491 kts | 256° |
| 2026-05-05 17:34 | 53.16158 | -48.84191 | 33781 ft | 491 kts | 256° |
| 2026-05-05 17:34 | 53.14661 | -48.95293 | 33760 ft | 491 kts | 256° |
| 2026-05-05 17:35 | 53.13158 | -49.06376 | 33763 ft | 490 kts | 256° |
| 2026-05-05 17:35 | 53.11653 | -49.17388 | 33768 ft | 490 kts | 255° |
| 2026-05-05 17:36 | 53.10130 | -49.28450 | 33761 ft | 490 kts | 255° |
| 2026-05-05 17:36 | 53.08595 | -49.39502 | 33760 ft | 490 kts | 255° |
| 2026-05-05 17:37 | 53.07049 | -49.50548 | 33757 ft | 490 kts | 255° |
| 2026-05-05 17:37 | 53.05494 | -49.61590 | 33753 ft | 491 kts | 255° |
| 2026-05-05 17:38 | 53.03929 | -49.72630 | 33754 ft | 491 kts | 255° |
| 2026-05-05 17:38 | 53.02350 | -49.83684 | 33662 ft | 492 kts | 255° |
| 2026-05-05 17:39 | 53.00759 | -49.94759 | 33574 ft | 493 kts | 255° |
| 2026-05-05 17:39 | 52.98766 | -50.05583 | 33578 ft | 489 kts | 247° |
| 2026-05-05 17:40 | 52.96208 | -50.16025 | 33582 ft | 488 kts | 246° |
| 2026-05-05 17:40 | 52.93652 | -50.26426 | 33581 ft | 486 kts | 246° |
| 2026-05-05 17:41 | 52.91117 | -50.36821 | 33579 ft | 486 kts | 247° |
| 2026-05-05 17:41 | 52.88587 | -50.47209 | 33569 ft | 486 kts | 247° |
| 2026-05-05 17:42 | 52.86053 | -50.57579 | 33572 ft | 486 kts | 247° |
| 2026-05-05 17:42 | 52.83508 | -50.67934 | 33571 ft | 486 kts | 247° |
| 2026-05-05 17:43 | 52.80959 | -50.78261 | 33573 ft | 486 kts | 246° |
| 2026-05-05 17:43 | 52.78394 | -50.88599 | 33563 ft | 486 kts | 246° |
| 2026-05-05 17:44 | 52.75834 | -50.98864 | 33564 ft | 486 kts | 246° |
| 2026-05-05 17:44 | 52.73253 | -51.09175 | 33565 ft | 487 kts | 246° |
| 2026-05-05 17:45 | 52.70655 | -51.19491 | 33563 ft | 487 kts | 246° |
| 2026-05-05 17:45 | 52.68050 | -51.29798 | 33561 ft | 487 kts | 246° |
| 2026-05-05 17:46 | 52.65436 | -51.40092 | 33557 ft | 487 kts | 246° |
| 2026-05-05 17:46 | 52.62814 | -51.50374 | 33555 ft | 487 kts | 246° |
| 2026-05-05 17:47 | 52.60180 | -51.60649 | 33555 ft | 487 kts | 246° |
| 2026-05-05 17:47 | 52.57540 | -51.70897 | 33552 ft | 487 kts | 246° |
| 2026-05-05 17:48 | 52.54894 | -51.81128 | 33554 ft | 486 kts | 246° |
| 2026-05-05 17:48 | 52.52239 | -51.91349 | 33548 ft | 486 kts | 246° |
| 2026-05-05 17:49 | 52.49596 | -52.01473 | 33544 ft | 485 kts | 246° |
| 2026-05-05 17:49 | 52.46931 | -52.11645 | 33544 ft | 485 kts | 246° |
| 2026-05-05 17:50 | 52.44257 | -52.21785 | 33539 ft | 484 kts | 246° |
| 2026-05-05 17:50 | 52.41581 | -52.31911 | 33548 ft | 484 kts | 246° |
| 2026-05-05 17:51 | 52.38898 | -52.42017 | 33545 ft | 484 kts | 246° |
| 2026-05-05 17:51 | 52.36202 | -52.52112 | 33546 ft | 484 kts | 246° |
| 2026-05-05 17:52 | 52.33498 | -52.62204 | 33539 ft | 484 kts | 246° |
| 2026-05-05 17:52 | 52.30783 | -52.72290 | 33546 ft | 484 kts | 246° |
| 2026-05-05 17:53 | 52.28063 | -52.82347 | 33604 ft | 484 kts | 246° |
| 2026-05-05 17:53 | 52.25334 | -52.92393 | 33601 ft | 484 kts | 246° |
| 2026-05-05 17:54 | 52.22593 | -53.02442 | 33602 ft | 485 kts | 246° |
| 2026-05-05 17:54 | 52.20304 | -53.10799 | 33600 ft | 486 kts | 245° |
| 2026-05-05 17:55 | 52.17539 | -53.20858 | 33600 ft | 486 kts | 245° |
| 2026-05-05 17:55 | 52.14294 | -53.32609 | 33595 ft | 486 kts | 245° |
| 2026-05-05 17:56 | 52.11978 | -53.40954 | 33592 ft | 486 kts | 245° |
| 2026-05-05 17:56 | 52.09192 | -53.50958 | 33590 ft | 486 kts | 245° |
| 2026-05-05 17:57 | 52.06396 | -53.60954 | 33590 ft | 485 kts | 245° |
| 2026-05-05 17:57 | 52.03599 | -53.70910 | 33591 ft | 484 kts | 245° |
| 2026-05-05 17:58 | 52.00797 | -53.80848 | 33582 ft | 483 kts | 245° |
| 2026-05-05 17:58 | 51.97990 | -53.90743 | 33578 ft | 482 kts | 245° |
| 2026-05-05 17:59 | 51.95184 | -54.00610 | 33581 ft | 482 kts | 245° |
| 2026-05-05 17:59 | 51.92372 | -54.10456 | 33581 ft | 481 kts | 245° |
| 2026-05-05 18:00 | 51.89570 | -54.20226 | 33583 ft | 481 kts | 245° |
| 2026-05-05 18:00 | 51.86724 | -54.30108 | 33582 ft | 481 kts | 245° |
| 2026-05-05 18:01 | 51.83908 | -54.39847 | 33578 ft | 481 kts | 245° |
| 2026-05-05 18:01 | 51.81045 | -54.49715 | 33570 ft | 482 kts | 245° |
| 2026-05-05 18:02 | 51.77876 | -54.59154 | 33569 ft | 482 kts | 239° |
| 2026-05-05 18:02 | 51.74348 | -54.68348 | 33579 ft | 481 kts | 239° |
| 2026-05-05 18:03 | 51.70823 | -54.77521 | 33582 ft | 481 kts | 239° |
| 2026-05-05 18:03 | 51.67312 | -54.86696 | 33581 ft | 481 kts | 239° |
| 2026-05-05 18:04 | 51.63806 | -54.95859 | 33580 ft | 480 kts | 239° |
| 2026-05-05 18:04 | 51.60298 | -55.04999 | 33582 ft | 480 kts | 239° |
| 2026-05-05 18:05 | 51.56782 | -55.14122 | 33589 ft | 479 kts | 239° |
| 2026-05-05 18:05 | 51.53266 | -55.23213 | 33590 ft | 479 kts | 239° |
| 2026-05-05 18:06 | 51.49741 | -55.32295 | 33592 ft | 479 kts | 239° |
| 2026-05-05 18:06 | 51.46214 | -55.41351 | 33594 ft | 479 kts | 239° |
| 2026-05-05 18:07 | 51.42679 | -55.50392 | 33606 ft | 479 kts | 239° |
| 2026-05-05 18:07 | 51.39133 | -55.59432 | 33599 ft | 479 kts | 238° |
| 2026-05-05 18:08 | 51.35578 | -55.68460 | 33610 ft | 479 kts | 239° |
| 2026-05-05 18:08 | 51.32042 | -55.77410 | 33613 ft | 479 kts | 238° |
| 2026-05-05 18:09 | 51.28475 | -55.86410 | 33609 ft | 479 kts | 238° |
| 2026-05-05 18:09 | 51.24900 | -55.95401 | 33611 ft | 479 kts | 238° |
| 2026-05-05 18:10 | 51.21318 | -56.04372 | 33610 ft | 479 kts | 238° |
| 2026-05-05 18:10 | 51.17734 | -56.13322 | 33610 ft | 479 kts | 238° |
| 2026-05-05 18:11 | 51.14143 | -56.22253 | 33616 ft | 478 kts | 238° |
| 2026-05-05 18:11 | 51.10552 | -56.31153 | 33625 ft | 478 kts | 238° |
| 2026-05-05 18:12 | 51.06956 | -56.40036 | 33626 ft | 477 kts | 238° |
| 2026-05-05 18:12 | 51.03357 | -56.48899 | 33626 ft | 476 kts | 238° |
| 2026-05-05 18:13 | 50.99757 | -56.57732 | 33629 ft | 476 kts | 238° |
| 2026-05-05 18:13 | 50.96154 | -56.66538 | 33649 ft | 475 kts | 239° |
| 2026-05-05 18:14 | 50.92571 | -56.75278 | 33668 ft | 471 kts | 239° |
| 2026-05-05 18:14 | 50.89003 | -56.83946 | 33671 ft | 468 kts | 239° |
| 2026-05-05 18:15 | 50.85469 | -56.92500 | 33673 ft | 466 kts | 239° |
| 2026-05-05 18:15 | 50.81918 | -57.01074 | 33685 ft | 464 kts | 239° |
| 2026-05-05 18:16 | 50.78378 | -57.09589 | 33679 ft | 463 kts | 239° |
| 2026-05-05 18:16 | 50.74834 | -57.18082 | 33692 ft | 463 kts | 239° |
| 2026-05-05 18:17 | 50.71276 | -57.26589 | 33701 ft | 464 kts | 239° |
| 2026-05-05 18:17 | 50.67714 | -57.35078 | 33707 ft | 463 kts | 239° |
| 2026-05-05 18:18 | 50.64147 | -57.43544 | 33705 ft | 463 kts | 239° |
| 2026-05-05 18:18 | 50.60575 | -57.51993 | 33705 ft | 464 kts | 239° |
| 2026-05-05 18:19 | 50.56995 | -57.60439 | 33703 ft | 464 kts | 239° |
| 2026-05-05 18:19 | 50.53404 | -57.68881 | 33711 ft | 464 kts | 239° |
| 2026-05-05 18:20 | 50.49828 | -57.77264 | 33715 ft | 465 kts | 240° |
| 2026-05-05 18:20 | 50.46194 | -57.85755 | 33716 ft | 466 kts | 240° |
| 2026-05-05 18:21 | 50.42604 | -57.94120 | 33721 ft | 465 kts | 240° |
| 2026-05-05 18:21 | 50.38982 | -58.02528 | 33724 ft | 464 kts | 240° |
| 2026-05-05 18:22 | 50.35367 | -58.10890 | 33724 ft | 464 kts | 240° |
| 2026-05-05 18:22 | 50.31748 | -58.19237 | 33727 ft | 462 kts | 239° |
| 2026-05-05 18:23 | 50.28127 | -58.27561 | 33731 ft | 462 kts | 239° |
| 2026-05-05 18:23 | 50.24510 | -58.35856 | 33733 ft | 462 kts | 239° |
| 2026-05-05 18:24 | 50.20886 | -58.44133 | 33733 ft | 461 kts | 239° |
| 2026-05-05 18:24 | 50.17261 | -58.52387 | 33739 ft | 462 kts | 239° |
| 2026-05-05 18:25 | 50.13628 | -58.60638 | 33754 ft | 462 kts | 239° |
| 2026-05-05 18:25 | 50.09984 | -58.68888 | 33758 ft | 462 kts | 239° |
| 2026-05-05 18:26 | 50.06349 | -58.77091 | 33756 ft | 463 kts | 239° |
| 2026-05-05 18:26 | 50.02680 | -58.85349 | 33756 ft | 464 kts | 239° |
| 2026-05-05 18:27 | 49.98997 | -58.93606 | 33762 ft | 465 kts | 239° |
| 2026-05-05 18:27 | 49.95308 | -59.01852 | 33755 ft | 465 kts | 239° |
| 2026-05-05 18:28 | 49.89753 | -59.14217 | 33772 ft | 466 kts | 239° |
| 2026-05-05 18:28 | 49.86039 | -59.22458 | 33753 ft | 466 kts | 239° |
| 2026-05-05 18:29 | 49.82315 | -59.30691 | 33761 ft | 467 kts | 239° |
| 2026-05-05 18:29 | 49.78585 | -59.38910 | 33766 ft | 466 kts | 239° |
| 2026-05-05 18:30 | 49.74853 | -59.47120 | 33757 ft | 466 kts | 239° |
| 2026-05-05 18:30 | 49.71108 | -59.55325 | 33756 ft | 466 kts | 238° |
| 2026-05-05 18:31 | 49.67362 | -59.63503 | 33760 ft | 466 kts | 238° |
| 2026-05-05 18:31 | 49.63614 | -59.71660 | 33756 ft | 466 kts | 238° |
| 2026-05-05 18:32 | 49.59881 | -59.79764 | 33754 ft | 466 kts | 238° |
| 2026-05-05 18:32 | 49.56124 | -59.87897 | 33758 ft | 466 kts | 238° |
| 2026-05-05 18:33 | 49.52362 | -59.96016 | 33760 ft | 465 kts | 238° |
| 2026-05-05 18:33 | 49.48593 | -60.04120 | 33757 ft | 466 kts | 238° |
| 2026-05-05 18:34 | 49.44818 | -60.12214 | 33759 ft | 466 kts | 238° |
| 2026-05-05 18:34 | 49.41038 | -60.20296 | 33765 ft | 466 kts | 238° |
| 2026-05-05 18:35 | 49.37279 | -60.28306 | 33762 ft | 465 kts | 238° |
| 2026-05-05 18:35 | 49.33487 | -60.36365 | 33756 ft | 465 kts | 238° |
| 2026-05-05 18:36 | 49.29693 | -60.44403 | 33755 ft | 465 kts | 238° |
| 2026-05-05 18:36 | 49.25894 | -60.52431 | 33765 ft | 465 kts | 238° |
| 2026-05-05 18:37 | 49.22094 | -60.60434 | 33779 ft | 465 kts | 237° |
| 2026-05-05 18:37 | 49.18288 | -60.68423 | 33771 ft | 465 kts | 237° |
| 2026-05-05 18:38 | 49.14481 | -60.76395 | 33781 ft | 464 kts | 237° |
| 2026-05-05 18:38 | 49.10691 | -60.84304 | 33785 ft | 464 kts | 237° |
| 2026-05-05 18:39 | 49.06877 | -60.92241 | 33780 ft | 464 kts | 237° |
| 2026-05-05 18:39 | 49.03060 | -61.00162 | 33788 ft | 463 kts | 237° |
| 2026-05-05 18:40 | 48.99241 | -61.08065 | 33787 ft | 463 kts | 237° |
| 2026-05-05 18:40 | 48.95411 | -61.15963 | 33787 ft | 463 kts | 237° |
| 2026-05-05 18:41 | 48.91582 | -61.23841 | 33788 ft | 463 kts | 237° |
| 2026-05-05 18:41 | 48.87744 | -61.31709 | 33788 ft | 463 kts | 237° |
| 2026-05-05 18:42 | 48.83904 | -61.39557 | 33796 ft | 463 kts | 237° |
| 2026-05-05 18:42 | 48.80062 | -61.47388 | 33797 ft | 462 kts | 237° |
| 2026-05-05 18:43 | 48.76870 | -61.53879 | 33796 ft | 462 kts | 237° |
| 2026-05-05 18:43 | 48.72374 | -61.62996 | 33799 ft | 462 kts | 236° |
| 2026-05-05 18:44 | 48.69172 | -61.69468 | 33804 ft | 461 kts | 236° |
| 2026-05-05 18:44 | 48.65324 | -61.77226 | 33806 ft | 461 kts | 236° |
| 2026-05-05 18:45 | 48.61462 | -61.84993 | 33797 ft | 462 kts | 236° |
| 2026-05-05 18:45 | 48.56971 | -61.93995 | 33785 ft | 462 kts | 236° |
| 2026-05-05 18:46 | 48.53753 | -62.00424 | 33787 ft | 461 kts | 236° |
| 2026-05-05 18:46 | 48.49881 | -62.08144 | 33788 ft | 461 kts | 236° |
| 2026-05-05 18:47 | 48.46008 | -62.15844 | 33786 ft | 461 kts | 236° |
| 2026-05-05 18:47 | 48.42132 | -62.23522 | 33784 ft | 461 kts | 236° |
| 2026-05-05 18:48 | 48.38242 | -62.31205 | 33780 ft | 461 kts | 236° |
| 2026-05-05 18:48 | 48.34358 | -62.38859 | 33779 ft | 461 kts | 236° |
| 2026-05-05 18:49 | 48.30465 | -62.46511 | 33781 ft | 461 kts | 236° |
| 2026-05-05 18:49 | 48.26570 | -62.54145 | 33784 ft | 460 kts | 235° |
| 2026-05-05 18:50 | 48.22672 | -62.61759 | 33779 ft | 460 kts | 235° |
| 2026-05-05 18:50 | 48.18770 | -62.69360 | 33780 ft | 460 kts | 235° |
| 2026-05-05 18:51 | 48.14864 | -62.76949 | 33764 ft | 460 kts | 235° |
| 2026-05-05 18:51 | 48.10976 | -62.84483 | 33779 ft | 460 kts | 235° |
| 2026-05-05 18:52 | 48.07059 | -62.92050 | 33760 ft | 460 kts | 235° |
| 2026-05-05 18:52 | 48.03142 | -62.99600 | 33758 ft | 459 kts | 235° |
| 2026-05-05 18:53 | 47.99229 | -63.07122 | 33779 ft | 459 kts | 235° |
| 2026-05-05 18:53 | 47.95307 | -63.14637 | 33761 ft | 459 kts | 234° |
| 2026-05-05 18:54 | 47.91378 | -63.22143 | 33760 ft | 459 kts | 234° |
| 2026-05-05 18:54 | 47.87441 | -63.29646 | 33757 ft | 460 kts | 234° |
| 2026-05-05 18:55 | 47.83497 | -63.37142 | 33754 ft | 460 kts | 234° |
| 2026-05-05 18:55 | 47.79544 | -63.44632 | 33750 ft | 460 kts | 234° |
| 2026-05-05 18:56 | 47.75585 | -63.52114 | 33747 ft | 460 kts | 234° |
| 2026-05-05 18:56 | 47.71623 | -63.59582 | 33750 ft | 460 kts | 234° |
| 2026-05-05 18:57 | 47.67657 | -63.67037 | 33750 ft | 460 kts | 234° |
| 2026-05-05 18:57 | 47.63688 | -63.74478 | 33748 ft | 460 kts | 234° |
| 2026-05-05 18:58 | 47.59715 | -63.81901 | 33752 ft | 459 kts | 234° |
| 2026-05-05 18:58 | 47.55771 | -63.89247 | 33757 ft | 458 kts | 234° |
| 2026-05-05 18:59 | 47.51801 | -63.96634 | 33766 ft | 458 kts | 234° |
| 2026-05-05 18:59 | 47.47829 | -64.04002 | 33771 ft | 458 kts | 234° |
| 2026-05-05 19:00 | 47.43850 | -64.11361 | 33757 ft | 458 kts | 234° |
| 2026-05-05 19:00 | 47.39865 | -64.18709 | 33791 ft | 458 kts | 233° |
| 2026-05-05 19:01 | 47.35877 | -64.26044 | 33795 ft | 458 kts | 233° |
| 2026-05-05 19:01 | 47.31882 | -64.33368 | 33795 ft | 459 kts | 233° |
| 2026-05-05 19:02 | 47.27900 | -64.40653 | 33758 ft | 459 kts | 233° |
| 2026-05-05 19:02 | 47.23888 | -64.47977 | 33760 ft | 460 kts | 233° |
| 2026-05-05 19:03 | 47.19872 | -64.55288 | 33756 ft | 460 kts | 233° |
| 2026-05-05 19:03 | 47.15815 | -64.62650 | 33742 ft | 460 kts | 233° |
| 2026-05-05 19:04 | 47.11806 | -64.69905 | 33741 ft | 460 kts | 233° |
| 2026-05-05 19:04 | 47.07765 | -64.77198 | 33735 ft | 460 kts | 233° |
| 2026-05-05 19:05 | 47.03720 | -64.84482 | 33731 ft | 460 kts | 233° |
| 2026-05-05 19:05 | 46.99666 | -64.91760 | 33731 ft | 460 kts | 233° |
| 2026-05-05 19:06 | 46.95616 | -64.99014 | 33732 ft | 460 kts | 233° |
| 2026-05-05 19:06 | 46.91567 | -65.06245 | 33735 ft | 459 kts | 232° |
| 2026-05-05 19:07 | 46.87512 | -65.13469 | 33739 ft | 459 kts | 232° |
| 2026-05-05 19:07 | 46.83453 | -65.20682 | 33738 ft | 459 kts | 232° |
| 2026-05-05 19:08 | 46.79394 | -65.27875 | 33743 ft | 459 kts | 232° |
| 2026-05-05 19:08 | 46.75331 | -65.35057 | 33747 ft | 459 kts | 232° |
| 2026-05-05 19:09 | 46.71263 | -65.42227 | 33755 ft | 459 kts | 232° |
| 2026-05-05 19:09 | 46.67195 | -65.49377 | 33757 ft | 459 kts | 232° |
| 2026-05-05 19:10 | 46.63142 | -65.56487 | 33757 ft | 459 kts | 232° |
| 2026-05-05 19:10 | 46.59058 | -65.63631 | 33758 ft | 460 kts | 232° |
| 2026-05-05 19:11 | 46.54963 | -65.70776 | 33766 ft | 459 kts | 232° |
| 2026-05-05 19:11 | 46.50868 | -65.77903 | 33758 ft | 460 kts | 232° |
| 2026-05-05 19:12 | 46.46766 | -65.85020 | 33781 ft | 460 kts | 232° |
| 2026-05-05 19:12 | 46.42658 | -65.92130 | 33781 ft | 460 kts | 232° |
| 2026-05-05 19:13 | 46.38551 | -65.99224 | 33787 ft | 460 kts | 231° |
| 2026-05-05 19:13 | 46.34434 | -66.06313 | 33764 ft | 460 kts | 231° |
| 2026-05-05 19:14 | 46.30314 | -66.13392 | 33760 ft | 460 kts | 231° |
| 2026-05-05 19:14 | 46.26187 | -66.20464 | 33767 ft | 460 kts | 231° |
| 2026-05-05 19:15 | 46.22058 | -66.27521 | 33760 ft | 460 kts | 231° |
| 2026-05-05 19:15 | 46.17925 | -66.34565 | 33764 ft | 460 kts | 231° |
| 2026-05-05 19:16 | 46.13787 | -66.41601 | 33742 ft | 460 kts | 231° |
| 2026-05-05 19:16 | 46.09648 | -66.48623 | 33743 ft | 459 kts | 231° |
| 2026-05-05 19:17 | 46.05504 | -66.55633 | 33738 ft | 459 kts | 231° |
| 2026-05-05 19:17 | 46.01364 | -66.62614 | 33731 ft | 459 kts | 231° |
| 2026-05-05 19:18 | 45.97213 | -66.69603 | 33726 ft | 459 kts | 231° |
| 2026-05-05 19:18 | 45.93064 | -66.76572 | 33730 ft | 459 kts | 231° |
| 2026-05-05 19:19 | 45.88910 | -66.83532 | 33723 ft | 459 kts | 231° |
| 2026-05-05 19:19 | 45.84753 | -66.90474 | 33722 ft | 459 kts | 231° |
| 2026-05-05 19:20 | 45.80592 | -66.97406 | 33731 ft | 458 kts | 230° |
| 2026-05-05 19:20 | 45.76430 | -67.04325 | 33732 ft | 458 kts | 230° |
| 2026-05-05 19:21 | 45.72266 | -67.11231 | 33729 ft | 458 kts | 230° |
| 2026-05-05 19:21 | 45.68093 | -67.18134 | 33726 ft | 458 kts | 230° |
| 2026-05-05 19:22 | 45.63915 | -67.25027 | 33722 ft | 458 kts | 230° |
| 2026-05-05 19:22 | 45.59738 | -67.31901 | 33730 ft | 458 kts | 230° |
| 2026-05-05 19:23 | 45.55560 | -67.38762 | 33726 ft | 458 kts | 230° |
| 2026-05-05 19:23 | 45.51380 | -67.45607 | 33738 ft | 457 kts | 230° |
| 2026-05-05 19:24 | 45.47202 | -67.52432 | 33741 ft | 457 kts | 230° |
| 2026-05-05 19:24 | 45.43023 | -67.59246 | 33742 ft | 456 kts | 230° |
| 2026-05-05 19:25 | 45.38845 | -67.66039 | 33737 ft | 456 kts | 230° |
| 2026-05-05 19:25 | 45.34662 | -67.72825 | 33746 ft | 456 kts | 230° |
| 2026-05-05 19:26 | 45.30444 | -67.79564 | 33754 ft | 456 kts | 229° |
| 2026-05-05 19:26 | 45.26188 | -67.86250 | 33739 ft | 457 kts | 229° |
| 2026-05-05 19:27 | 45.21954 | -67.92890 | 33739 ft | 457 kts | 229° |
| 2026-05-05 19:27 | 45.17663 | -67.99616 | 33743 ft | 457 kts | 229° |
| 2026-05-05 19:28 | 45.13394 | -68.06299 | 33759 ft | 457 kts | 229° |
| 2026-05-05 19:28 | 45.09848 | -68.11840 | 33747 ft | 457 kts | 229° |
| 2026-05-05 19:29 | 45.05578 | -68.18503 | 33755 ft | 457 kts | 229° |
| 2026-05-05 19:29 | 45.01300 | -68.25156 | 33764 ft | 457 kts | 229° |
| 2026-05-05 19:30 | 44.97019 | -68.31797 | 33780 ft | 457 kts | 229° |
| 2026-05-05 19:30 | 44.92729 | -68.38436 | 33757 ft | 458 kts | 229° |
| 2026-05-05 19:31 | 44.88430 | -68.45074 | 33760 ft | 458 kts | 229° |
| 2026-05-05 19:31 | 44.84126 | -68.51702 | 33761 ft | 458 kts | 228° |
| 2026-05-05 19:32 | 44.79819 | -68.58323 | 33758 ft | 458 kts | 228° |
| 2026-05-05 19:32 | 44.75508 | -68.64936 | 33757 ft | 458 kts | 228° |
| 2026-05-05 19:33 | 44.71192 | -68.71536 | 33780 ft | 459 kts | 228° |
| 2026-05-05 19:33 | 44.66866 | -68.78137 | 33762 ft | 458 kts | 228° |
| 2026-05-05 19:34 | 44.62545 | -68.84715 | 33770 ft | 459 kts | 228° |
| 2026-05-05 19:35 | 44.56048 | -68.94577 | 33760 ft | 458 kts | 228° |
| 2026-05-05 19:35 | 44.51719 | -69.01129 | 33788 ft | 458 kts | 228° |
| 2026-05-05 19:36 | 44.47384 | -69.07672 | 33790 ft | 457 kts | 228° |
| 2026-05-05 19:36 | 44.43082 | -69.14155 | 33759 ft | 458 kts | 228° |
| 2026-05-05 19:37 | 44.38750 | -69.20665 | 33781 ft | 457 kts | 228° |
| 2026-05-05 19:37 | 44.34416 | -69.27163 | 33786 ft | 457 kts | 228° |
| 2026-05-05 19:38 | 44.30082 | -69.33647 | 33781 ft | 457 kts | 228° |
| 2026-05-05 19:38 | 44.25740 | -69.40127 | 33788 ft | 457 kts | 228° |
| 2026-05-05 19:39 | 44.21395 | -69.46593 | 33783 ft | 457 kts | 227° |
| 2026-05-05 19:39 | 44.17043 | -69.53054 | 33795 ft | 457 kts | 227° |
| 2026-05-05 19:40 | 44.12699 | -69.59496 | 33798 ft | 456 kts | 227° |
| 2026-05-05 19:40 | 44.08350 | -69.65927 | 33803 ft | 456 kts | 227° |
| 2026-05-05 19:41 | 44.03997 | -69.72346 | 33806 ft | 456 kts | 227° |
| 2026-05-05 19:41 | 43.99635 | -69.78767 | 33813 ft | 456 kts | 227° |
| 2026-05-05 19:42 | 43.95270 | -69.85178 | 33814 ft | 457 kts | 227° |
| 2026-05-05 19:42 | 43.90901 | -69.91577 | 33814 ft | 457 kts | 227° |
| 2026-05-05 19:43 | 43.86524 | -69.97974 | 33814 ft | 457 kts | 227° |
| 2026-05-05 19:43 | 43.82148 | -70.04362 | 33809 ft | 457 kts | 227° |
| 2026-05-05 19:44 | 43.77899 | -70.10543 | 33797 ft | 458 kts | 227° |
| 2026-05-05 19:44 | 43.73506 | -70.16920 | 33790 ft | 458 kts | 227° |
| 2026-05-05 19:45 | 43.69257 | -70.23077 | 33787 ft | 458 kts | 227° |
| 2026-05-05 19:45 | 43.64854 | -70.29442 | 33797 ft | 458 kts | 227° |
| 2026-05-05 19:46 | 43.60439 | -70.35810 | 33784 ft | 459 kts | 227° |
| 2026-05-05 19:46 | 43.56017 | -70.42174 | 33786 ft | 459 kts | 227° |
| 2026-05-05 19:47 | 43.51593 | -70.48526 | 33787 ft | 459 kts | 227° |
| 2026-05-05 19:47 | 43.47159 | -70.54884 | 33770 ft | 460 kts | 227° |
| 2026-05-05 19:48 | 43.42589 | -70.61029 | 33755 ft | 460 kts | 216° |
| 2026-05-05 19:48 | 43.39760 | -70.63077 | 33783 ft | 461 kts | 200° |
| 2026-05-05 19:48 | 43.36712 | -70.64440 | 33783 ft | 462 kts | 200° |
| 2026-05-05 19:49 | 43.30598 | -70.67296 | 33786 ft | 466 kts | 201° |
| 2026-05-05 19:49 | 43.24470 | -70.70284 | 33787 ft | 469 kts | 201° |
| 2026-05-05 19:50 | 43.18343 | -70.73293 | 33770 ft | 472 kts | 201° |
| 2026-05-05 19:50 | 43.12151 | -70.76323 | 33777 ft | 473 kts | 201° |
| 2026-05-05 19:51 | 43.05905 | -70.79368 | 33760 ft | 473 kts | 201° |
| 2026-05-05 19:51 | 42.99750 | -70.82360 | 33783 ft | 472 kts | 201° |
| 2026-05-05 19:52 | 42.93557 | -70.85362 | 33774 ft | 472 kts | 201° |
| 2026-05-05 19:52 | 42.87380 | -70.88354 | 33787 ft | 471 kts | 201° |
| 2026-05-05 19:53 | 42.81167 | -70.91357 | 33795 ft | 470 kts | 201° |
| 2026-05-05 19:53 | 42.75004 | -70.94330 | 33799 ft | 470 kts | 201° |
| 2026-05-05 19:54 | 42.68833 | -70.97304 | 33814 ft | 470 kts | 201° |
| 2026-05-05 19:54 | 42.62656 | -71.00274 | 33819 ft | 471 kts | 201° |
| 2026-05-05 19:55 | 42.56476 | -71.03238 | 33834 ft | 472 kts | 201° |
| 2026-05-05 19:55 | 42.50280 | -71.06205 | 33824 ft | 473 kts | 201° |
| 2026-05-05 19:56 | 42.44070 | -71.09173 | 33823 ft | 474 kts | 200° |
| 2026-05-05 19:56 | 42.37844 | -71.12142 | 33833 ft | 474 kts | 200° |
| 2026-05-05 19:57 | 42.31614 | -71.15106 | 33831 ft | 475 kts | 200° |
| 2026-05-05 19:57 | 42.25377 | -71.18068 | 33834 ft | 475 kts | 200° |
| 2026-05-05 19:58 | 42.19134 | -71.21024 | 33844 ft | 475 kts | 200° |
| 2026-05-05 19:58 | 42.12890 | -71.23980 | 33855 ft | 476 kts | 200° |
| 2026-05-05 19:59 | 42.06633 | -71.26933 | 33860 ft | 477 kts | 200° |
| 2026-05-05 19:59 | 42.00373 | -71.29879 | 33869 ft | 477 kts | 200° |
| 2026-05-05 20:00 | 41.94099 | -71.32828 | 33878 ft | 478 kts | 200° |
| 2026-05-05 20:00 | 41.87813 | -71.35775 | 33884 ft | 479 kts | 200° |
| 2026-05-05 20:01 | 41.81526 | -71.38718 | 33885 ft | 480 kts | 200° |
| 2026-05-05 20:01 | 41.75207 | -71.41673 | 33895 ft | 481 kts | 200° |
| 2026-05-05 20:02 | 41.69417 | -71.45903 | 33916 ft | 473 kts | 222° |
| 2026-05-05 20:02 | 41.64473 | -71.51720 | 33918 ft | 475 kts | 221° |
| 2026-05-05 20:03 | 41.59447 | -71.57463 | 33916 ft | 477 kts | 221° |
| 2026-05-05 20:03 | 41.54355 | -71.63145 | 33918 ft | 477 kts | 220° |
| 2026-05-05 20:04 | 41.49247 | -71.68803 | 33920 ft | 473 kts | 220° |
| 2026-05-05 20:04 | 41.46736 | -71.71583 | 33747 ft | 465 kts | 220° |
| 2026-05-05 20:04 | 41.44253 | -71.74330 | 33271 ft | 462 kts | 220° |
| 2026-05-05 20:04 | 41.41794 | -71.77053 | 32788 ft | 457 kts | 220° |
| 2026-05-05 20:05 | 41.39357 | -71.79749 | 32289 ft | 453 kts | 220° |
| 2026-05-05 20:05 | 41.36940 | -71.82418 | 31798 ft | 450 kts | 220° |
| 2026-05-05 20:05 | 41.34542 | -71.85064 | 31284 ft | 446 kts | 220° |
| 2026-05-05 20:05 | 41.32192 | -71.87656 | 30802 ft | 442 kts | 220° |
| 2026-05-05 20:06 | 41.29802 | -71.90285 | 30293 ft | 438 kts | 220° |
| 2026-05-05 20:06 | 41.28247 | -71.91995 | 29966 ft | 436 kts | 220° |
| 2026-05-05 20:06 | 41.25136 | -71.95412 | 29296 ft | 431 kts | 220° |
| 2026-05-05 20:06 | 41.22836 | -71.97936 | 28780 ft | 427 kts | 220° |
| 2026-05-05 20:07 | 41.20586 | -72.00404 | 28305 ft | 424 kts | 220° |
| 2026-05-05 20:07 | 41.19050 | -72.02087 | 27964 ft | 422 kts | 220° |
| 2026-05-05 20:07 | 41.16798 | -72.04555 | 27454 ft | 418 kts | 220° |
| 2026-05-05 20:07 | 41.13842 | -72.07790 | 26827 ft | 414 kts | 220° |
| 2026-05-05 20:08 | 41.11639 | -72.10217 | 26341 ft | 408 kts | 223° |
| 2026-05-05 20:08 | 41.09818 | -72.13047 | 25859 ft | 403 kts | 240° |
| 2026-05-05 20:08 | 41.09005 | -72.15305 | 25525 ft | 400 kts | 250° |
| 2026-05-05 20:08 | 41.08164 | -72.18794 | 25061 ft | 396 kts | 252° |
| 2026-05-05 20:09 | 41.07340 | -72.22270 | 24569 ft | 394 kts | 252° |
| 2026-05-05 20:09 | 41.06509 | -72.25725 | 24099 ft | 392 kts | 252° |
| 2026-05-05 20:09 | 41.05672 | -72.29161 | 23621 ft | 390 kts | 251° |
| 2026-05-05 20:09 | 41.04834 | -72.32570 | 23147 ft | 389 kts | 251° |
| 2026-05-05 20:10 | 41.03994 | -72.35963 | 22692 ft | 387 kts | 251° |
| 2026-05-05 20:10 | 41.03157 | -72.39334 | 22199 ft | 385 kts | 251° |
| 2026-05-05 20:10 | 41.02321 | -72.42691 | 21745 ft | 383 kts | 251° |
| 2026-05-05 20:10 | 41.01487 | -72.46031 | 21283 ft | 381 kts | 251° |
| 2026-05-05 20:11 | 41.00656 | -72.49349 | 20818 ft | 379 kts | 251° |
| 2026-05-05 20:11 | 40.99829 | -72.52649 | 20352 ft | 377 kts | 251° |
| 2026-05-05 20:11 | 40.99005 | -72.55931 | 19888 ft | 375 kts | 251° |
| 2026-05-05 20:11 | 40.98184 | -72.59198 | 19417 ft | 373 kts | 252° |
| 2026-05-05 20:12 | 40.97368 | -72.62441 | 18948 ft | 371 kts | 252° |
| 2026-05-05 20:12 | 40.96554 | -72.65670 | 18494 ft | 369 kts | 252° |
| 2026-05-05 20:12 | 40.95745 | -72.68882 | 18010 ft | 367 kts | 252° |
| 2026-05-05 20:12 | 40.94938 | -72.72076 | 17560 ft | 365 kts | 252° |
| 2026-05-05 20:13 | 40.94145 | -72.75214 | 17110 ft | 362 kts | 252° |
| 2026-05-05 20:13 | 40.93289 | -72.78314 | 16630 ft | 356 kts | 244° |
| 2026-05-05 20:13 | 40.91849 | -72.80950 | 16187 ft | 354 kts | 225° |
| 2026-05-05 20:13 | 40.89924 | -72.82954 | 15755 ft | 351 kts | 217° |
| 2026-05-05 20:14 | 40.87938 | -72.84814 | 15315 ft | 349 kts | 217° |
| 2026-05-05 20:14 | 40.85965 | -72.86662 | 14847 ft | 346 kts | 217° |
| 2026-05-05 20:14 | 40.84012 | -72.88503 | 14413 ft | 344 kts | 217° |
| 2026-05-05 20:14 | 40.82078 | -72.90339 | 13967 ft | 341 kts | 218° |
| 2026-05-05 20:15 | 40.80162 | -72.92165 | 13533 ft | 339 kts | 218° |
| 2026-05-05 20:15 | 40.78256 | -72.93987 | 13085 ft | 337 kts | 218° |
| 2026-05-05 20:15 | 40.76367 | -72.95792 | 12651 ft | 335 kts | 218° |
| 2026-05-05 20:15 | 40.74486 | -72.97589 | 12223 ft | 332 kts | 218° |
| 2026-05-05 20:16 | 40.72622 | -72.99369 | 11790 ft | 330 kts | 218° |
| 2026-05-05 20:16 | 40.70790 | -73.01145 | 11355 ft | 322 kts | 222° |
| 2026-05-05 20:16 | 40.69399 | -73.03374 | 11010 ft | 313 kts | 244° |
| 2026-05-05 20:16 | 40.68654 | -73.06095 | 10930 ft | 319 kts | 258° |
| 2026-05-05 20:17 | 40.68469 | -73.08974 | 10911 ft | 311 kts | 269° |
| 2026-05-05 20:17 | 40.68508 | -73.11752 | 10895 ft | 296 kts | 270° |
| 2026-05-05 20:17 | 40.68553 | -73.14392 | 10885 ft | 280 kts | 269° |
| 2026-05-05 20:17 | 40.68588 | -73.16883 | 10874 ft | 268 kts | 269° |
| 2026-05-05 20:18 | 40.68615 | -73.19336 | 10837 ft | 268 kts | 269° |
| 2026-05-05 20:18 | 40.68636 | -73.21783 | 10564 ft | 267 kts | 269° |
| 2026-05-05 20:18 | 40.68664 | -73.24217 | 10209 ft | 263 kts | 273° |
| 2026-05-05 20:18 | 40.69184 | -73.26530 | 9614 ft | 271 kts | 300° |
| 2026-05-05 20:19 | 40.70518 | -73.28308 | 9119 ft | 278 kts | 323° |
| 2026-05-05 20:19 | 40.72191 | -73.29547 | 8681 ft | 280 kts | 329° |
| 2026-05-05 20:19 | 40.73934 | -73.30669 | 8370 ft | 276 kts | 330° |
| 2026-05-05 20:19 | 40.75664 | -73.31757 | 8033 ft | 274 kts | 331° |
| 2026-05-05 20:20 | 40.77307 | -73.32780 | 7988 ft | 249 kts | 331° |
| 2026-05-05 20:20 | 40.78848 | -73.33722 | 7994 ft | 243 kts | 331° |
| 2026-05-05 20:20 | 40.80387 | -73.34660 | 7986 ft | 246 kts | 331° |
| 2026-05-05 20:20 | 40.81968 | -73.35631 | 7253 ft | 253 kts | 331° |
| 2026-05-05 20:21 | 40.83528 | -73.36583 | 6832 ft | 239 kts | 331° |
| 2026-05-05 20:21 | 40.84969 | -73.37547 | 6848 ft | 235 kts | 327° |
| 2026-05-05 20:21 | 40.86420 | -73.38587 | 6817 ft | 239 kts | 327° |
| 2026-05-05 20:21 | 40.87883 | -73.39654 | 6389 ft | 241 kts | 324° |
| 2026-05-05 20:22 | 40.89072 | -73.41172 | 5737 ft | 239 kts | 296° |
| 2026-05-05 20:22 | 40.89496 | -73.43194 | 5098 ft | 225 kts | 264° |
| 2026-05-05 20:22 | 40.89138 | -73.45153 | 4491 ft | 216 kts | 243° |
| 2026-05-05 20:22 | 40.88394 | -73.46800 | 4137 ft | 197 kts | 235° |
| 2026-05-05 20:23 | 40.87667 | -73.48200 | 4110 ft | 182 kts | 234° |
| 2026-05-05 20:23 | 40.86918 | -73.49630 | 4176 ft | 196 kts | 234° |
| 2026-05-05 20:23 | 40.86122 | -73.51152 | 4184 ft | 203 kts | 234° |
| 2026-05-05 20:23 | 40.85319 | -73.52699 | 4183 ft | 204 kts | 234° |
| 2026-05-05 20:24 | 40.84521 | -73.54242 | 4174 ft | 203 kts | 235° |
| 2026-05-05 20:24 | 40.83728 | -73.55780 | 4187 ft | 202 kts | 235° |
| 2026-05-05 20:24 | 40.82942 | -73.57309 | 4175 ft | 202 kts | 235° |
| 2026-05-05 20:24 | 40.82132 | -73.58883 | 3905 ft | 211 kts | 235° |
| 2026-05-05 20:25 | 40.81320 | -73.60464 | 3694 ft | 204 kts | 234° |
| 2026-05-05 20:25 | 40.80555 | -73.61951 | 3551 ft | 194 kts | 234° |
| 2026-05-05 20:25 | 40.79715 | -73.63259 | 3406 ft | 183 kts | 218° |
| 2026-05-05 20:25 | 40.78701 | -73.64225 | 3205 ft | 178 kts | 215° |
| 2026-05-05 20:26 | 40.77669 | -73.65132 | 2983 ft | 177 kts | 213° |
| 2026-05-05 20:26 | 40.76631 | -73.65976 | 2759 ft | 175 kts | 211° |
| 2026-05-05 20:26 | 40.75559 | -73.66822 | 2509 ft | 176 kts | 211° |
| 2026-05-05 20:26 | 40.74528 | -73.67631 | 2302 ft | 177 kts | 210° |
| 2026-05-05 20:27 | 40.73503 | -73.68442 | 2076 ft | 167 kts | 210° |
| 2026-05-05 20:27 | 40.72530 | -73.69204 | 1833 ft | 156 kts | 209° |
| 2026-05-05 20:27 | 40.71607 | -73.69931 | 1631 ft | 153 kts | 209° |
| 2026-05-05 20:27 | 40.70686 | -73.70655 | 1431 ft | 156 kts | 209° |
| 2026-05-05 20:28 | 40.69759 | -73.71379 | 1223 ft | 153 kts | 208° |
| 2026-05-05 20:28 | 40.68842 | -73.72099 | 1021 ft | 154 kts | 209° |
| 2026-05-05 20:28 | 40.67929 | -73.72819 | 818 ft | 152 kts | 208° |
| 2026-05-05 20:28 | 40.67016 | -73.73535 | 634 ft | 153 kts | 208° |
| 2026-05-05 20:29 | 40.66100 | -73.74259 | 410 ft | 154 kts | 210° |
| 2026-05-05 20:29 | 40.65182 | -73.74984 | 238 ft | 151 kts | 207° |
| 2026-05-05 20:29 | 40.64285 | -73.75668 | 44 ft | 147 kts | 209° |
| 2026-05-05 20:29 | 40.63490 | -73.76293 | 28 ft | 101 kts | 211° |
| 2026-05-05 20:30 | 40.63147 | -73.76562 | 28 ft | 35 kts | 213° |
| 2026-05-05 20:30 | 40.62985 | -73.76758 | 28 ft | 22 kts | 234° |
| 2026-05-05 20:30 | 40.62933 | -73.76943 | 29 ft | 20 kts | 272° |
| 2026-05-05 20:30 | 40.62991 | -73.77107 | 26 ft | 20 kts | 300° |
| 2026-05-05 20:31 | 40.63063 | -73.77269 | 31 ft | 20 kts | 300° |
| 2026-05-05 20:31 | 40.63136 | -73.77427 | 33 ft | 20 kts | 302° |
| 2026-05-05 20:31 | 40.63209 | -73.77585 | 34 ft | 20 kts | 300° |
| 2026-05-05 20:31 | 40.63280 | -73.77744 | 32 ft | 20 kts | 301° |
| 2026-05-05 20:32 | 40.63352 | -73.77903 | 28 ft | 20 kts | 301° |
| 2026-05-05 20:32 | 40.63421 | -73.78065 | 28 ft | 20 kts | 298° |
| 2026-05-05 20:32 | 40.63490 | -73.78224 | 29 ft | 19 kts | 304° |
| 2026-05-05 20:32 | 40.63595 | -73.78254 | 28 ft | 17 kts | 357° |
| 2026-05-05 20:33 | 40.63710 | -73.78269 | 28 ft | 17 kts | 353° |
| 2026-05-05 20:33 | 40.63824 | -73.78288 | 27 ft | 17 kts | 352° |
| 2026-05-05 20:33 | 40.63931 | -73.78316 | 27 ft | 13 kts | 4° |
| 2026-05-05 20:33 | 40.63968 | -73.78271 | 27 ft | 5 kts | 57° |
| 2026-05-05 20:34 | 40.63980 | -73.78247 | 27 ft | 3 kts | 57° |
| 2026-05-05 20:34 | 40.63984 | -73.78239 | 27 ft | 0 kts | 59° |